PWSweather.com
Personal Weather Stations
Station Observations
DW6359
Southwest Cambria, Cambria, WI 53923

Southwest CambriaCambria, WI 53923

Lat: 43.541194, Lon: -89.11275

Elevation: 945

Station Type: Davis Vantage Pro2

http://home.centurytel.net/weathercambria/wxcambria.html

High Low Average
Temperature 32.5°F0.3°C 13.9°F-10.1°C 22.6°F-5.2°C
Dew Point 26.8°F-2.9°C 1.4°F-17.0°C 11.3°F-11.5°C
Winds 20.0 mph 32.2 kmh Calm Calm 5.0 mph W8.0 kmh W
Wind Gusts 22.0 mph35.4 kmh -- 2.0 mph3.2 kmh
Humidity 86% 40% 62%
Pressure 30.37 in1028.4 mb 30.01 in1016.3 mb -
Precipitation 0.00 in0.0 mm - -
Hour Temp Dew Point Humidity Winds Wind Gusts Pressure Precip Precip Rate Daily Precip Total
12:00 AM 33.1°F0.6°C 27.0°F-2.8°C 78% 8.0 mph NW12.9 kmh NW -- 29.99 in1015.6 mb 0.00 in0.0 mm 0.00 in0.0 mm 0.00 in0.0 mm
12:05 AM 33.0°F0.6°C 27.2°F-2.7°C 79% 5.0 mph NW8.0 kmh NW -- 29.99 in1015.6 mb 0.00 in0.0 mm 0.00 in0.0 mm 0.00 in0.0 mm
12:10 AM 32.9°F0.5°C 27.1°F-2.7°C 79% 9.0 mph NW14.5 kmh NW -- 29.99 in1015.6 mb 0.00 in0.0 mm 0.00 in0.0 mm 0.00 in0.0 mm
12:15 AM 32.8°F0.4°C 27.0°F-2.8°C 79% 7.0 mph NNW11.3 kmh NNW -- 30.00 in1015.9 mb 0.00 in0.0 mm 0.00 in0.0 mm 0.00 in0.0 mm
12:20 AM 32.8°F0.4°C 27.3°F-2.6°C 80% 9.0 mph NNW14.5 kmh NNW -- 30.00 in1015.9 mb 0.00 in0.0 mm 0.00 in0.0 mm 0.00 in0.0 mm
12:25 AM 32.7°F0.4°C 27.2°F-2.7°C 80% 7.0 mph NW11.3 kmh NW -- 30.00 in1015.9 mb 0.00 in0.0 mm 0.00 in0.0 mm 0.00 in0.0 mm
12:30 AM 32.7°F0.4°C 27.2°F-2.7°C 80% 8.0 mph NW12.9 kmh NW -- 30.00 in1015.9 mb 0.00 in0.0 mm 0.00 in0.0 mm 0.00 in0.0 mm
12:35 AM 32.6°F0.3°C 27.1°F-2.7°C 80% 10.0 mph NNW16.1 kmh NNW -- 30.01 in1016.3 mb 0.00 in0.0 mm 0.00 in0.0 mm 0.00 in0.0 mm
12:40 AM 32.6°F0.3°C 27.1°F-2.7°C 80% 8.0 mph NNW12.9 kmh NNW 14.0 mph22.5 kmh 30.01 in1016.3 mb 0.00 in0.0 mm 0.00 in0.0 mm 0.00 in0.0 mm
12:45 AM 32.7°F0.4°C 27.2°F-2.7°C 80% 7.0 mph NNW11.3 kmh NNW 14.0 mph22.5 kmh 30.01 in1016.3 mb 0.00 in0.0 mm 0.00 in0.0 mm 0.00 in0.0 mm
12:50 AM 32.6°F0.3°C 26.8°F-2.9°C 79% 9.0 mph NW14.5 kmh NW -- 30.01 in1016.3 mb 0.00 in0.0 mm 0.00 in0.0 mm 0.00 in0.0 mm
12:55 AM 32.6°F0.3°C 26.8°F-2.9°C 79% 12.0 mph NW19.3 kmh NW -- 30.01 in1016.3 mb 0.00 in0.0 mm 0.00 in0.0 mm 0.00 in0.0 mm
01:00 AM 32.5°F0.3°C 26.7°F-2.9°C 79% 5.0 mph NNW8.0 kmh NNW -- 30.01 in1016.3 mb 0.00 in0.0 mm 0.00 in0.0 mm 0.00 in0.0 mm
01:05 AM 32.5°F0.3°C 26.7°F-2.9°C 79% 6.0 mph NW9.7 kmh NW -- 30.02 in1016.6 mb 0.00 in0.0 mm 0.00 in0.0 mm 0.00 in0.0 mm
01:10 AM 32.4°F0.2°C 26.6°F-3.0°C 79% 9.0 mph NW14.5 kmh NW -- 30.02 in1016.6 mb 0.00 in0.0 mm 0.00 in0.0 mm 0.00 in0.0 mm
01:15 AM 32.3°F0.2°C 26.8°F-2.9°C 80% 8.0 mph NW12.9 kmh NW -- 30.03 in1016.9 mb 0.00 in0.0 mm 0.00 in0.0 mm 0.00 in0.0 mm
01:20 AM 32.2°F0.1°C 26.7°F-2.9°C 80% 7.0 mph NW11.3 kmh NW -- 30.03 in1016.9 mb 0.00 in0.0 mm 0.00 in0.0 mm 0.00 in0.0 mm
01:25 AM 32.1°F0.1°C 26.6°F-3.0°C 80% 7.0 mph NW11.3 kmh NW -- 30.03 in1016.9 mb 0.00 in0.0 mm 0.00 in0.0 mm 0.00 in0.0 mm
01:30 AM 31.9°F-0.1°C 26.7°F-2.9°C 81% 6.0 mph NW9.7 kmh NW 9.0 mph14.5 kmh 30.03 in1016.9 mb 0.00 in0.0 mm 0.00 in0.0 mm 0.00 in0.0 mm
01:35 AM 31.7°F-0.2°C 26.2°F-3.2°C 80% 12.0 mph NW19.3 kmh NW 9.0 mph14.5 kmh 30.04 in1017.3 mb 0.00 in0.0 mm 0.00 in0.0 mm 0.00 in0.0 mm
01:40 AM 31.4°F-0.3°C 26.0°F-3.3°C 80% 9.0 mph NNW14.5 kmh NNW -- 30.04 in1017.3 mb 0.00 in0.0 mm 0.00 in0.0 mm 0.00 in0.0 mm
01:45 AM 31.2°F-0.4°C 26.1°F-3.3°C 81% 6.0 mph NW9.7 kmh NW -- 30.04 in1017.3 mb 0.00 in0.0 mm 0.00 in0.0 mm 0.00 in0.0 mm
01:50 AM 30.9°F-0.6°C 26.1°F-3.3°C 82% 6.0 mph NNW9.7 kmh NNW -- 30.04 in1017.3 mb 0.00 in0.0 mm 0.00 in0.0 mm 0.00 in0.0 mm
01:55 AM 30.7°F-0.7°C 26.2°F-3.2°C 83% 8.0 mph NNW12.9 kmh NNW -- 30.04 in1017.3 mb 0.00 in0.0 mm 0.00 in0.0 mm 0.00 in0.0 mm
02:00 AM 30.5°F-0.8°C 26.0°F-3.3°C 83% 5.0 mph NW8.0 kmh NW -- 30.04 in1017.3 mb 0.00 in0.0 mm 0.00 in0.0 mm 0.00 in0.0 mm
02:05 AM 30.3°F-0.9°C 26.1°F-3.3°C 84% 9.0 mph NNW14.5 kmh NNW -- 30.05 in1017.6 mb 0.00 in0.0 mm 0.00 in0.0 mm 0.00 in0.0 mm
02:10 AM 30.2°F-1.0°C 26.2°F-3.2°C 85% 4.0 mph NNW6.4 kmh NNW -- 30.05 in1017.6 mb 0.00 in0.0 mm 0.00 in0.0 mm 0.00 in0.0 mm
02:15 AM 30.1°F-1.1°C 26.1°F-3.3°C 85% 7.0 mph NW11.3 kmh NW -- 30.05 in1017.6 mb 0.00 in0.0 mm 0.00 in0.0 mm 0.00 in0.0 mm
02:20 AM 30.0°F-1.1°C 26.3°F-3.2°C 86% 6.0 mph NW9.7 kmh NW 11.0 mph17.7 kmh 30.05 in1017.6 mb 0.00 in0.0 mm 0.00 in0.0 mm 0.00 in0.0 mm
02:25 AM 29.9°F-1.2°C 26.2°F-3.2°C 86% 7.0 mph NW11.3 kmh NW 11.0 mph17.7 kmh 30.05 in1017.6 mb 0.00 in0.0 mm 0.00 in0.0 mm 0.00 in0.0 mm
02:30 AM 29.8°F-1.2°C 26.1°F-3.3°C 86% 4.0 mph NW6.4 kmh NW -- 30.05 in1017.6 mb 0.00 in0.0 mm 0.00 in0.0 mm 0.00 in0.0 mm
02:35 AM 29.7°F-1.3°C 25.8°F-3.4°C 85% 6.0 mph NW9.7 kmh NW -- 30.06 in1017.9 mb 0.00 in0.0 mm 0.00 in0.0 mm 0.00 in0.0 mm
02:40 AM 29.4°F-1.4°C 25.5°F-3.6°C 85% 9.0 mph NW14.5 kmh NW -- 30.07 in1018.3 mb 0.00 in0.0 mm 0.00 in0.0 mm 0.00 in0.0 mm
02:45 AM 29.3°F-1.5°C 25.4°F-3.7°C 85% 9.0 mph NW14.5 kmh NW -- 30.07 in1018.3 mb 0.00 in0.0 mm 0.00 in0.0 mm 0.00 in0.0 mm
02:50 AM 29.1°F-1.6°C 25.2°F-3.8°C 85% 6.0 mph NNW9.7 kmh NNW -- 30.08 in1018.6 mb 0.00 in0.0 mm 0.00 in0.0 mm 0.00 in0.0 mm
02:55 AM 29.0°F-1.7°C 25.1°F-3.8°C 85% 7.0 mph NW11.3 kmh NW -- 30.08 in1018.6 mb 0.00 in0.0 mm 0.00 in0.0 mm 0.00 in0.0 mm
03:00 AM 29.0°F-1.7°C 24.8°F-4.0°C 84% 8.0 mph NW12.9 kmh NW -- 30.09 in1019.0 mb 0.00 in0.0 mm 0.00 in0.0 mm 0.00 in0.0 mm
03:05 AM 29.0°F-1.7°C 24.8°F-4.0°C 84% 7.0 mph NW11.3 kmh NW -- 30.09 in1019.0 mb 0.00 in0.0 mm 0.00 in0.0 mm 0.00 in0.0 mm
03:10 AM 29.0°F-1.7°C 24.5°F-4.2°C 83% 11.0 mph NNW17.7 kmh NNW 15.0 mph24.1 kmh 30.09 in1019.0 mb 0.00 in0.0 mm 0.00 in0.0 mm 0.00 in0.0 mm
03:15 AM 29.0°F-1.7°C 24.5°F-4.2°C 83% 9.0 mph NW14.5 kmh NW 15.0 mph24.1 kmh 30.09 in1019.0 mb 0.00 in0.0 mm 0.00 in0.0 mm 0.00 in0.0 mm
03:20 AM 28.9°F-1.7°C 24.1°F-4.4°C 82% 7.0 mph NNW11.3 kmh NNW -- 30.09 in1019.0 mb 0.00 in0.0 mm 0.00 in0.0 mm 0.00 in0.0 mm
03:25 AM 28.8°F-1.8°C 24.0°F-4.4°C 82% 8.0 mph NNW12.9 kmh NNW -- 30.09 in1019.0 mb 0.00 in0.0 mm 0.00 in0.0 mm 0.00 in0.0 mm
03:30 AM 28.8°F-1.8°C 24.0°F-4.4°C 82% 7.0 mph NNW11.3 kmh NNW -- 30.09 in1019.0 mb 0.00 in0.0 mm 0.00 in0.0 mm 0.00 in0.0 mm
03:35 AM 28.7°F-1.8°C 23.9°F-4.5°C 82% 6.0 mph NW9.7 kmh NW -- 30.09 in1019.0 mb 0.00 in0.0 mm 0.00 in0.0 mm 0.00 in0.0 mm
03:40 AM 28.7°F-1.8°C 23.6°F-4.7°C 81% 8.0 mph NW12.9 kmh NW -- 30.08 in1018.6 mb 0.00 in0.0 mm 0.00 in0.0 mm 0.00 in0.0 mm
03:45 AM 28.7°F-1.8°C 23.6°F-4.7°C 81% 5.0 mph WNW8.0 kmh WNW -- 30.10 in1019.3 mb 0.00 in0.0 mm 0.00 in0.0 mm 0.00 in0.0 mm
03:50 AM 28.8°F-1.8°C 23.7°F-4.6°C 81% 8.0 mph NW12.9 kmh NW -- 30.10 in1019.3 mb 0.00 in0.0 mm 0.00 in0.0 mm 0.00 in0.0 mm
03:55 AM 28.8°F-1.8°C 23.7°F-4.6°C 81% 6.0 mph NW9.7 kmh NW -- 30.11 in1019.6 mb 0.00 in0.0 mm 0.00 in0.0 mm 0.00 in0.0 mm
04:00 AM 28.8°F-1.8°C 23.7°F-4.6°C 81% 7.0 mph NW11.3 kmh NW 11.0 mph17.7 kmh 30.11 in1019.6 mb 0.00 in0.0 mm 0.00 in0.0 mm 0.00 in0.0 mm
04:05 AM 28.8°F-1.8°C 23.7°F-4.6°C 81% 5.0 mph WNW8.0 kmh WNW 11.0 mph17.7 kmh 30.11 in1019.6 mb 0.00 in0.0 mm 0.00 in0.0 mm 0.00 in0.0 mm
04:10 AM 28.7°F-1.8°C 23.6°F-4.7°C 81% 6.0 mph NW9.7 kmh NW -- 30.12 in1020.0 mb 0.00 in0.0 mm 0.00 in0.0 mm 0.00 in0.0 mm
04:15 AM 28.6°F-1.9°C 23.5°F-4.7°C 81% 4.0 mph NNW6.4 kmh NNW -- 30.12 in1020.0 mb 0.00 in0.0 mm 0.00 in0.0 mm 0.00 in0.0 mm
04:20 AM 28.5°F-1.9°C 23.4°F-4.8°C 81% 4.0 mph WNW6.4 kmh WNW -- 30.13 in1020.3 mb 0.00 in0.0 mm 0.00 in0.0 mm 0.00 in0.0 mm
04:25 AM 28.5°F-1.9°C 23.4°F-4.8°C 81% 5.0 mph NW8.0 kmh NW -- 30.13 in1020.3 mb 0.00 in0.0 mm 0.00 in0.0 mm 0.00 in0.0 mm
04:30 AM 28.4°F-2.0°C 23.3°F-4.8°C 81% 4.0 mph WNW6.4 kmh WNW -- 30.13 in1020.3 mb 0.00 in0.0 mm 0.00 in0.0 mm 0.00 in0.0 mm
04:35 AM 28.5°F-1.9°C 23.7°F-4.6°C 82% 6.0 mph WNW9.7 kmh WNW -- 30.13 in1020.3 mb 0.00 in0.0 mm 0.00 in0.0 mm 0.00 in0.0 mm
04:40 AM 28.5°F-1.9°C 23.7°F-4.6°C 82% 4.0 mph W6.4 kmh W -- 30.14 in1020.7 mb 0.00 in0.0 mm 0.00 in0.0 mm 0.00 in0.0 mm
04:45 AM 28.5°F-1.9°C 23.7°F-4.6°C 82% 3.0 mph W4.8 kmh W -- 30.14 in1020.7 mb 0.00 in0.0 mm 0.00 in0.0 mm 0.00 in0.0 mm
04:50 AM 28.5°F-1.9°C 23.7°F-4.6°C 82% 2.0 mph WNW3.2 kmh WNW 9.0 mph14.5 kmh 30.14 in1020.7 mb 0.00 in0.0 mm 0.00 in0.0 mm 0.00 in0.0 mm
04:55 AM 28.5°F-1.9°C 23.7°F-4.6°C 82% 4.0 mph NW6.4 kmh NW 9.0 mph14.5 kmh 30.13 in1020.3 mb 0.00 in0.0 mm 0.00 in0.0 mm 0.00 in0.0 mm
05:00 AM 28.5°F-1.9°C 23.7°F-4.6°C 82% 5.0 mph W8.0 kmh W -- 30.14 in1020.7 mb 0.00 in0.0 mm 0.00 in0.0 mm 0.00 in0.0 mm
05:05 AM 28.6°F-1.9°C 23.8°F-4.6°C 82% 4.0 mph W6.4 kmh W -- 30.14 in1020.7 mb 0.00 in0.0 mm 0.00 in0.0 mm 0.00 in0.0 mm
05:10 AM 28.6°F-1.9°C 23.8°F-4.6°C 82% 5.0 mph WNW8.0 kmh WNW -- 30.14 in1020.7 mb 0.00 in0.0 mm 0.00 in0.0 mm 0.00 in0.0 mm
05:15 AM 28.7°F-1.8°C 23.6°F-4.7°C 81% 7.0 mph NW11.3 kmh NW -- 30.15 in1021.0 mb 0.00 in0.0 mm 0.00 in0.0 mm 0.00 in0.0 mm
05:20 AM 28.8°F-1.8°C 23.7°F-4.6°C 81% 8.0 mph NW12.9 kmh NW -- 30.14 in1020.7 mb 0.00 in0.0 mm 0.00 in0.0 mm 0.00 in0.0 mm
05:25 AM 28.8°F-1.8°C 23.7°F-4.6°C 81% 4.0 mph WNW6.4 kmh WNW -- 30.15 in1021.0 mb 0.00 in0.0 mm 0.00 in0.0 mm 0.00 in0.0 mm
05:30 AM 28.9°F-1.7°C 23.8°F-4.6°C 81% 9.0 mph W14.5 kmh W -- 30.15 in1021.0 mb 0.00 in0.0 mm 0.00 in0.0 mm 0.00 in0.0 mm
05:35 AM 28.9°F-1.7°C 23.5°F-4.7°C 80% 7.0 mph WNW11.3 kmh WNW -- 30.15 in1021.0 mb 0.00 in0.0 mm 0.00 in0.0 mm 0.00 in0.0 mm
05:40 AM 29.0°F-1.7°C 23.6°F-4.7°C 80% 4.0 mph NW6.4 kmh NW 12.0 mph19.3 kmh 30.16 in1021.3 mb 0.00 in0.0 mm 0.00 in0.0 mm 0.00 in0.0 mm
05:45 AM 29.0°F-1.7°C 23.6°F-4.7°C 80% 8.0 mph NW12.9 kmh NW 12.0 mph19.3 kmh 30.16 in1021.3 mb 0.00 in0.0 mm 0.00 in0.0 mm 0.00 in0.0 mm
05:50 AM 29.0°F-1.7°C 23.9°F-4.5°C 81% 9.0 mph W14.5 kmh W -- 30.17 in1021.7 mb 0.00 in0.0 mm 0.00 in0.0 mm 0.00 in0.0 mm
05:55 AM 29.0°F-1.7°C 23.9°F-4.5°C 81% 6.0 mph NW9.7 kmh NW -- 30.17 in1021.7 mb 0.00 in0.0 mm 0.00 in0.0 mm 0.00 in0.0 mm
06:00 AM 29.0°F-1.7°C 23.6°F-4.7°C 80% 6.0 mph WNW9.7 kmh WNW -- 30.17 in1021.7 mb 0.00 in0.0 mm 0.00 in0.0 mm 0.00 in0.0 mm
06:05 AM 29.0°F-1.7°C 23.0°F-5.0°C 78% 8.0 mph W12.9 kmh W -- 30.18 in1022.0 mb 0.00 in0.0 mm 0.00 in0.0 mm 0.00 in0.0 mm
06:10 AM 28.9°F-1.7°C 22.6°F-5.2°C 77% 6.0 mph NNW9.7 kmh NNW -- 30.18 in1022.0 mb 0.00 in0.0 mm 0.00 in0.0 mm 0.00 in0.0 mm
06:15 AM 28.9°F-1.7°C 22.6°F-5.2°C 77% 8.0 mph NW12.9 kmh NW -- 30.18 in1022.0 mb 0.00 in0.0 mm 0.00 in0.0 mm 0.00 in0.0 mm
06:20 AM 28.9°F-1.7°C 22.6°F-5.2°C 77% 8.0 mph NW12.9 kmh NW -- 30.18 in1022.0 mb 0.00 in0.0 mm 0.00 in0.0 mm 0.00 in0.0 mm
06:25 AM 28.8°F-1.8°C 22.5°F-5.3°C 77% 10.0 mph NW16.1 kmh NW -- 30.19 in1022.4 mb 0.00 in0.0 mm 0.00 in0.0 mm 0.00 in0.0 mm
06:30 AM 28.8°F-1.8°C 22.5°F-5.3°C 77% 7.0 mph NW11.3 kmh NW 16.0 mph25.7 kmh 30.19 in1022.4 mb 0.00 in0.0 mm 0.00 in0.0 mm 0.00 in0.0 mm
06:35 AM 28.8°F-1.8°C 22.2°F-5.4°C 76% 11.0 mph NW17.7 kmh NW 16.0 mph25.7 kmh 30.19 in1022.4 mb 0.00 in0.0 mm 0.00 in0.0 mm 0.00 in0.0 mm
06:40 AM 28.6°F-1.9°C 21.7°F-5.7°C 75% 15.0 mph W24.1 kmh W -- 30.20 in1022.7 mb 0.00 in0.0 mm 0.00 in0.0 mm 0.00 in0.0 mm
06:45 AM 28.5°F-1.9°C 20.6°F-6.3°C 72% 13.0 mph NW20.9 kmh NW -- 30.20 in1022.7 mb 0.00 in0.0 mm 0.00 in0.0 mm 0.00 in0.0 mm
06:50 AM 28.3°F-2.1°C 20.1°F-6.6°C 71% 12.0 mph WNW19.3 kmh WNW -- 30.20 in1022.7 mb 0.00 in0.0 mm 0.00 in0.0 mm 0.00 in0.0 mm
06:55 AM 28.2°F-2.1°C 20.4°F-6.4°C 72% 4.0 mph NW6.4 kmh NW -- 30.20 in1022.7 mb 0.00 in0.0 mm 0.00 in0.0 mm 0.00 in0.0 mm
07:00 AM 28.1°F-2.2°C 20.3°F-6.5°C 72% 7.0 mph NW11.3 kmh NW -- 30.19 in1022.4 mb 0.00 in0.0 mm 0.00 in0.0 mm 0.00 in0.0 mm
07:05 AM 28.0°F-2.2°C 20.2°F-6.6°C 72% 8.0 mph WNW12.9 kmh WNW -- 30.20 in1022.7 mb 0.00 in0.0 mm 0.00 in0.0 mm 0.00 in0.0 mm
07:10 AM 27.6°F-2.4°C 19.8°F-6.8°C 72% 13.0 mph NW20.9 kmh NW -- 30.20 in1022.7 mb 0.00 in0.0 mm 0.00 in0.0 mm 0.00 in0.0 mm
07:15 AM 27.3°F-2.6°C 19.2°F-7.1°C 71% 12.0 mph W19.3 kmh W -- 30.20 in1022.7 mb 0.00 in0.0 mm 0.00 in0.0 mm 0.00 in0.0 mm
07:20 AM 27.1°F-2.7°C 18.6°F-7.4°C 70% 6.0 mph WNW9.7 kmh WNW 17.0 mph27.4 kmh 30.20 in1022.7 mb 0.00 in0.0 mm 0.00 in0.0 mm 0.00 in0.0 mm
07:25 AM 26.7°F-2.9°C 18.6°F-7.4°C 71% 6.0 mph W9.7 kmh W 17.0 mph27.4 kmh 30.21 in1023.0 mb 0.00 in0.0 mm 0.00 in0.0 mm 0.00 in0.0 mm
07:30 AM 26.4°F-3.1°C 18.3°F-7.6°C 71% 9.0 mph NW14.5 kmh NW -- 30.21 in1023.0 mb 0.00 in0.0 mm 0.00 in0.0 mm 0.00 in0.0 mm
07:35 AM 26.2°F-3.2°C 18.1°F-7.7°C 71% 10.0 mph W16.1 kmh W -- 30.21 in1023.0 mb 0.00 in0.0 mm 0.00 in0.0 mm 0.00 in0.0 mm
07:40 AM 26.1°F-3.3°C 18.0°F-7.8°C 71% 9.0 mph NW14.5 kmh NW -- 30.22 in1023.4 mb 0.00 in0.0 mm 0.00 in0.0 mm 0.00 in0.0 mm
07:45 AM 25.7°F-3.5°C 17.9°F-7.8°C 72% 11.0 mph W17.7 kmh W -- 30.22 in1023.4 mb 0.00 in0.0 mm 0.00 in0.0 mm 0.00 in0.0 mm
07:50 AM 25.5°F-3.6°C 17.8°F-7.9°C 72% 9.0 mph NW14.5 kmh NW -- 30.23 in1023.7 mb 0.00 in0.0 mm 0.00 in0.0 mm 0.00 in0.0 mm
07:55 AM 25.2°F-3.8°C 17.5°F-8.1°C 72% 9.0 mph NW14.5 kmh NW -- 30.23 in1023.7 mb 0.00 in0.0 mm 0.00 in0.0 mm 0.00 in0.0 mm
08:00 AM 24.9°F-3.9°C 17.5°F-8.1°C 73% 6.0 mph WSW9.7 kmh WSW -- 30.24 in1024.0 mb 0.00 in0.0 mm 0.00 in0.0 mm 0.00 in0.0 mm
08:05 AM 24.5°F-4.2°C 16.8°F-8.4°C 72% 8.0 mph WNW12.9 kmh WNW -- 30.24 in1024.0 mb 0.00 in0.0 mm 0.00 in0.0 mm 0.00 in0.0 mm
08:10 AM 24.3°F-4.3°C 16.6°F-8.6°C 72% 8.0 mph WNW12.9 kmh WNW 16.0 mph25.7 kmh 30.25 in1024.4 mb 0.00 in0.0 mm 0.00 in0.0 mm 0.00 in0.0 mm
08:15 AM 24.0°F-4.4°C 16.3°F-8.7°C 72% 8.0 mph WNW12.9 kmh WNW 16.0 mph25.7 kmh 30.25 in1024.4 mb 0.00 in0.0 mm 0.00 in0.0 mm 0.00 in0.0 mm
08:20 AM 23.6°F-4.7°C 15.6°F-9.1°C 71% 9.0 mph SW14.5 kmh SW -- 30.26 in1024.7 mb 0.00 in0.0 mm 0.00 in0.0 mm 0.00 in0.0 mm
08:25 AM 23.3°F-4.8°C 15.3°F-9.3°C 71% 10.0 mph NW16.1 kmh NW -- 30.26 in1024.7 mb 0.00 in0.0 mm 0.00 in0.0 mm 0.00 in0.0 mm
08:30 AM 23.1°F-4.9°C 15.1°F-9.4°C 71% 7.0 mph NW11.3 kmh NW -- 30.26 in1024.7 mb 0.00 in0.0 mm 0.00 in0.0 mm 0.00 in0.0 mm
08:35 AM 22.8°F-5.1°C 14.5°F-9.7°C 70% 9.0 mph NW14.5 kmh NW -- 30.27 in1025.1 mb 0.00 in0.0 mm 0.00 in0.0 mm 0.00 in0.0 mm
08:40 AM 22.6°F-5.2°C 14.3°F-9.8°C 70% 14.0 mph NNW22.5 kmh NNW -- 30.27 in1025.1 mb 0.00 in0.0 mm 0.00 in0.0 mm 0.00 in0.0 mm
08:45 AM 22.5°F-5.3°C 14.5°F-9.7°C 71% 7.0 mph WNW11.3 kmh WNW -- 30.28 in1025.4 mb 0.00 in0.0 mm 0.00 in0.0 mm 0.00 in0.0 mm
08:50 AM 22.4°F-5.3°C 14.1°F-9.9°C 70% 4.0 mph NW6.4 kmh NW -- 30.28 in1025.4 mb 0.00 in0.0 mm 0.00 in0.0 mm 0.00 in0.0 mm
08:55 AM 22.1°F-5.5°C 13.8°F-10.1°C 70% 9.0 mph NW14.5 kmh NW -- 30.28 in1025.4 mb 0.00 in0.0 mm 0.00 in0.0 mm 0.00 in0.0 mm
09:00 AM 22.1°F-5.5°C 13.8°F-10.1°C 70% 6.0 mph NW9.7 kmh NW 16.0 mph25.7 kmh 30.29 in1025.7 mb 0.00 in0.0 mm 0.00 in0.0 mm 0.00 in0.0 mm
09:05 AM 21.9°F-5.6°C 13.6°F-10.2°C 70% 13.0 mph W20.9 kmh W 16.0 mph25.7 kmh 30.29 in1025.7 mb 0.00 in0.0 mm 0.00 in0.0 mm 0.00 in0.0 mm
09:10 AM 21.7°F-5.7°C 13.4°F-10.3°C 70% 9.0 mph WNW14.5 kmh WNW -- 30.30 in1026.1 mb 0.00 in0.0 mm 0.00 in0.0 mm 0.00 in0.0 mm
09:15 AM 21.5°F-5.8°C 13.3°F-10.4°C 70% 10.0 mph NW16.1 kmh NW -- 30.30 in1026.1 mb 0.00 in0.0 mm 0.00 in0.0 mm 0.00 in0.0 mm
09:20 AM 21.5°F-5.8°C 12.9°F-10.6°C 69% 11.0 mph NW17.7 kmh NW -- 30.30 in1026.1 mb 0.00 in0.0 mm 0.00 in0.0 mm 0.00 in0.0 mm
09:25 AM 21.4°F-5.9°C 12.8°F-10.7°C 69% 7.0 mph W11.3 kmh W -- 30.30 in1026.1 mb 0.00 in0.0 mm 0.00 in0.0 mm 0.00 in0.0 mm
09:30 AM 21.1°F-6.1°C 11.9°F-11.2°C 67% 11.0 mph NW17.7 kmh NW -- 30.30 in1026.1 mb 0.00 in0.0 mm 0.00 in0.0 mm 0.00 in0.0 mm
09:35 AM 20.9°F-6.2°C 11.7°F-11.3°C 67% 7.0 mph WNW11.3 kmh WNW -- 30.30 in1026.1 mb 0.00 in0.0 mm 0.00 in0.0 mm 0.00 in0.0 mm
09:40 AM 20.7°F-6.3°C 11.2°F-11.6°C 66% 20.0 mph WNW32.2 kmh WNW -- 30.30 in1026.1 mb 0.00 in0.0 mm 0.00 in0.0 mm 0.00 in0.0 mm
09:45 AM 20.7°F-6.3°C 11.5°F-11.4°C 67% 12.0 mph W19.3 kmh W -- 30.31 in1026.4 mb 0.00 in0.0 mm 0.00 in0.0 mm 0.00 in0.0 mm
09:50 AM 20.6°F-6.3°C 11.1°F-11.6°C 66% 6.0 mph NW9.7 kmh NW 22.0 mph35.4 kmh 30.31 in1026.4 mb 0.00 in0.0 mm 0.00 in0.0 mm 0.00 in0.0 mm
09:55 AM 20.4°F-6.4°C 10.5°F-11.9°C 65% 12.0 mph W19.3 kmh W 22.0 mph35.4 kmh 30.31 in1026.4 mb 0.00 in0.0 mm 0.00 in0.0 mm 0.00 in0.0 mm
10:00 AM 20.3°F-6.5°C 10.1°F-12.2°C 64% 12.0 mph NW19.3 kmh NW -- 30.32 in1026.8 mb 0.00 in0.0 mm 0.00 in0.0 mm 0.00 in0.0 mm
10:05 AM 20.2°F-6.6°C 8.9°F-12.8°C 61% 14.0 mph W22.5 kmh W -- 30.32 in1026.8 mb 0.00 in0.0 mm 0.00 in0.0 mm 0.00 in0.0 mm
10:10 AM 20.2°F-6.6°C 8.9°F-12.8°C 61% 9.0 mph WNW14.5 kmh WNW -- 30.32 in1026.8 mb 0.00 in0.0 mm 0.00 in0.0 mm 0.00 in0.0 mm
10:15 AM 20.2°F-6.6°C 8.6°F-13.0°C 60% 8.0 mph WNW12.9 kmh WNW -- 30.32 in1026.8 mb 0.00 in0.0 mm 0.00 in0.0 mm 0.00 in0.0 mm
10:20 AM 20.1°F-6.6°C 8.5°F-13.1°C 60% 18.0 mph NW29.0 kmh NW -- 30.32 in1026.8 mb 0.00 in0.0 mm 0.00 in0.0 mm 0.00 in0.0 mm
10:25 AM 20.2°F-6.6°C 8.6°F-13.0°C 60% 7.0 mph W11.3 kmh W -- 30.32 in1026.8 mb 0.00 in0.0 mm 0.00 in0.0 mm 0.00 in0.0 mm
10:30 AM 20.5°F-6.4°C 8.5°F-13.1°C 59% 15.0 mph NW24.1 kmh NW -- 30.33 in1027.1 mb 0.00 in0.0 mm 0.00 in0.0 mm 0.00 in0.0 mm
10:35 AM 20.2°F-6.6°C 7.4°F-13.7°C 57% 13.0 mph W20.9 kmh W -- 30.33 in1027.1 mb 0.00 in0.0 mm 0.00 in0.0 mm 0.00 in0.0 mm
10:40 AM 20.2°F-6.6°C 7.4°F-13.7°C 57% 6.0 mph NW9.7 kmh NW 20.0 mph32.2 kmh 30.33 in1027.1 mb 0.00 in0.0 mm 0.00 in0.0 mm 0.00 in0.0 mm
10:45 AM 20.0°F-6.7°C 6.9°F-13.9°C 56% 14.0 mph NW22.5 kmh NW 20.0 mph32.2 kmh 30.34 in1027.4 mb 0.00 in0.0 mm 0.00 in0.0 mm 0.00 in0.0 mm
10:50 AM 20.0°F-6.7°C 6.9°F-13.9°C 56% 9.0 mph WNW14.5 kmh WNW -- 30.34 in1027.4 mb 0.00 in0.0 mm 0.00 in0.0 mm 0.00 in0.0 mm
10:55 AM 19.9°F-6.7°C 6.4°F-14.2°C 55% 9.0 mph NW14.5 kmh NW -- 30.34 in1027.4 mb 0.00 in0.0 mm 0.00 in0.0 mm 0.00 in0.0 mm
11:00 AM 20.4°F-6.4°C 7.6°F-13.6°C 57% 8.0 mph WNW12.9 kmh WNW -- 30.34 in1027.4 mb 0.00 in0.0 mm 0.00 in0.0 mm 0.00 in0.0 mm
11:05 AM 20.4°F-6.4°C 6.8°F-14.0°C 55% 11.0 mph NNW17.7 kmh NNW -- 30.34 in1027.4 mb 0.00 in0.0 mm 0.00 in0.0 mm 0.00 in0.0 mm
11:10 AM 20.7°F-6.3°C 8.3°F-13.2°C 58% 4.0 mph NW6.4 kmh NW -- 30.34 in1027.4 mb 0.00 in0.0 mm 0.00 in0.0 mm 0.00 in0.0 mm
11:15 AM 20.8°F-6.2°C 9.5°F-12.5°C 61% 11.0 mph W17.7 kmh W -- 30.34 in1027.4 mb 0.00 in0.0 mm 0.00 in0.0 mm 0.00 in0.0 mm
11:20 AM 20.4°F-6.4°C 9.1°F-12.7°C 61% 11.0 mph WNW17.7 kmh WNW -- 30.35 in1027.8 mb 0.00 in0.0 mm 0.00 in0.0 mm 0.00 in0.0 mm
11:25 AM 20.7°F-6.3°C 9.4°F-12.6°C 61% 9.0 mph NW14.5 kmh NW -- 30.35 in1027.8 mb 0.00 in0.0 mm 0.00 in0.0 mm 0.00 in0.0 mm
11:30 AM 20.5°F-6.4°C 8.9°F-12.8°C 60% 11.0 mph NW17.7 kmh NW 16.0 mph25.7 kmh 30.35 in1027.8 mb 0.00 in0.0 mm 0.00 in0.0 mm 0.00 in0.0 mm
11:35 AM 20.3°F-6.5°C 7.9°F-13.4°C 58% 11.0 mph NW17.7 kmh NW 16.0 mph25.7 kmh 30.35 in1027.8 mb 0.00 in0.0 mm 0.00 in0.0 mm 0.00 in0.0 mm
11:40 AM 20.7°F-6.3°C 9.0°F-12.8°C 60% 8.0 mph NW12.9 kmh NW -- 30.35 in1027.8 mb 0.00 in0.0 mm 0.00 in0.0 mm 0.00 in0.0 mm
11:45 AM 20.5°F-6.4°C 8.5°F-13.1°C 59% 6.0 mph WNW9.7 kmh WNW -- 30.35 in1027.8 mb 0.00 in0.0 mm 0.00 in0.0 mm 0.00 in0.0 mm
11:50 AM 20.2°F-6.6°C 8.2°F-13.2°C 59% 4.0 mph W6.4 kmh W -- 30.36 in1028.1 mb 0.00 in0.0 mm 0.00 in0.0 mm 0.00 in0.0 mm
11:55 AM 20.3°F-6.5°C 8.3°F-13.2°C 59% 3.0 mph W4.8 kmh W -- 30.36 in1028.1 mb 0.00 in0.0 mm 0.00 in0.0 mm 0.00 in0.0 mm
12:00 PM 20.4°F-6.4°C 8.0°F-13.3°C 58% 5.0 mph NW8.0 kmh NW -- 30.36 in1028.1 mb 0.00 in0.0 mm 0.00 in0.0 mm 0.00 in0.0 mm
12:05 PM 20.6°F-6.3°C 7.8°F-13.4°C 57% 5.0 mph W8.0 kmh W -- 30.36 in1028.1 mb 0.00 in0.0 mm 0.00 in0.0 mm 0.00 in0.0 mm
12:10 PM 20.7°F-6.3°C 7.9°F-13.4°C 57% 8.0 mph W12.9 kmh W -- 30.36 in1028.1 mb 0.00 in0.0 mm 0.00 in0.0 mm 0.00 in0.0 mm
12:15 PM 20.6°F-6.3°C 7.8°F-13.4°C 57% 6.0 mph W9.7 kmh W -- 30.36 in1028.1 mb 0.00 in0.0 mm 0.00 in0.0 mm 0.00 in0.0 mm
12:20 PM 20.4°F-6.4°C 7.2°F-13.8°C 56% 9.0 mph W14.5 kmh W 15.0 mph24.1 kmh 30.36 in1028.1 mb 0.00 in0.0 mm 0.00 in0.0 mm 0.00 in0.0 mm
12:25 PM 20.4°F-6.4°C 6.8°F-14.0°C 55% 6.0 mph NW9.7 kmh NW 15.0 mph24.1 kmh 30.36 in1028.1 mb 0.00 in0.0 mm 0.00 in0.0 mm 0.00 in0.0 mm
12:30 PM 20.6°F-6.3°C 7.4°F-13.7°C 56% 8.0 mph WNW12.9 kmh WNW -- 30.36 in1028.1 mb 0.00 in0.0 mm 0.00 in0.0 mm 0.00 in0.0 mm
12:35 PM 20.8°F-6.2°C 7.6°F-13.6°C 56% 13.0 mph WNW20.9 kmh WNW -- 30.36 in1028.1 mb 0.00 in0.0 mm 0.00 in0.0 mm 0.00 in0.0 mm
12:40 PM 20.7°F-6.3°C 7.1°F-13.8°C 55% 5.0 mph W8.0 kmh W -- 30.37 in1028.4 mb 0.00 in0.0 mm 0.00 in0.0 mm 0.00 in0.0 mm
12:45 PM 20.7°F-6.3°C 7.1°F-13.8°C 55% 11.0 mph W17.7 kmh W -- 30.37 in1028.4 mb 0.00 in0.0 mm 0.00 in0.0 mm 0.00 in0.0 mm
12:50 PM 20.4°F-6.4°C 5.2°F-14.9°C 51% 7.0 mph NW11.3 kmh NW -- 30.37 in1028.4 mb 0.00 in0.0 mm 0.00 in0.0 mm 0.00 in0.0 mm
12:55 PM 21.0°F-6.1°C 6.2°F-14.3°C 52% 9.0 mph W14.5 kmh W -- 30.37 in1028.4 mb 0.00 in0.0 mm 0.00 in0.0 mm 0.00 in0.0 mm
01:00 PM 20.7°F-6.3°C 5.0°F-15.0°C 50% 8.0 mph WSW12.9 kmh WSW -- 30.37 in1028.4 mb 0.00 in0.0 mm 0.00 in0.0 mm 0.00 in0.0 mm
01:05 PM 20.5°F-6.4°C 4.0°F-15.6°C 48% 6.0 mph NW9.7 kmh NW -- 30.37 in1028.4 mb 0.00 in0.0 mm 0.00 in0.0 mm 0.00 in0.0 mm
01:10 PM 20.5°F-6.4°C 3.0°F-16.1°C 46% 4.0 mph W6.4 kmh W 16.0 mph25.7 kmh 30.37 in1028.4 mb 0.00 in0.0 mm 0.00 in0.0 mm 0.00 in0.0 mm
01:15 PM 20.6°F-6.3°C 3.6°F-15.8°C 47% 9.0 mph W14.5 kmh W 16.0 mph25.7 kmh 30.37 in1028.4 mb 0.00 in0.0 mm 0.00 in0.0 mm 0.00 in0.0 mm
01:20 PM 20.6°F-6.3°C 3.6°F-15.8°C 47% 6.0 mph NW9.7 kmh NW -- 30.37 in1028.4 mb 0.00 in0.0 mm 0.00 in0.0 mm 0.00 in0.0 mm
01:25 PM 20.8°F-6.2°C 3.8°F-15.7°C 47% 9.0 mph NW14.5 kmh NW -- 30.36 in1028.1 mb 0.00 in0.0 mm 0.00 in0.0 mm 0.00 in0.0 mm
01:30 PM 20.6°F-6.3°C 2.7°F-16.3°C 45% 8.0 mph WNW12.9 kmh WNW -- 30.36 in1028.1 mb 0.00 in0.0 mm 0.00 in0.0 mm 0.00 in0.0 mm
01:35 PM 20.7°F-6.3°C 3.7°F-15.7°C 47% 10.0 mph WNW16.1 kmh WNW -- 30.36 in1028.1 mb 0.00 in0.0 mm 0.00 in0.0 mm 0.00 in0.0 mm
01:40 PM 20.7°F-6.3°C 3.2°F-16.0°C 46% 5.0 mph W8.0 kmh W -- 30.36 in1028.1 mb 0.00 in0.0 mm 0.00 in0.0 mm 0.00 in0.0 mm
01:45 PM 20.7°F-6.3°C 3.2°F-16.0°C 46% 10.0 mph W16.1 kmh W -- 30.36 in1028.1 mb 0.00 in0.0 mm 0.00 in0.0 mm 0.00 in0.0 mm
01:50 PM 20.7°F-6.3°C 2.3°F-16.5°C 44% 9.0 mph WNW14.5 kmh WNW -- 30.37 in1028.4 mb 0.00 in0.0 mm 0.00 in0.0 mm 0.00 in0.0 mm
01:55 PM 20.9°F-6.2°C 1.5°F-16.9°C 42% 9.0 mph WNW14.5 kmh WNW -- 30.37 in1028.4 mb 0.00 in0.0 mm 0.00 in0.0 mm 0.00 in0.0 mm
02:00 PM 20.8°F-6.2°C 1.4°F-17.0°C 42% 6.0 mph NW9.7 kmh NW 13.0 mph20.9 kmh 30.36 in1028.1 mb 0.00 in0.0 mm 0.00 in0.0 mm 0.00 in0.0 mm
02:05 PM 21.1°F-6.1°C 2.6°F-16.3°C 44% 7.0 mph WSW11.3 kmh WSW 13.0 mph20.9 kmh 30.36 in1028.1 mb 0.00 in0.0 mm 0.00 in0.0 mm 0.00 in0.0 mm
02:10 PM 21.4°F-5.9°C 2.9°F-16.2°C 44% 6.0 mph NW9.7 kmh NW -- 30.36 in1028.1 mb 0.00 in0.0 mm 0.00 in0.0 mm 0.00 in0.0 mm
02:15 PM 21.6°F-5.8°C 3.6°F-15.8°C 45% 4.0 mph WSW6.4 kmh WSW -- 30.36 in1028.1 mb 0.00 in0.0 mm 0.00 in0.0 mm 0.00 in0.0 mm
02:20 PM 21.6°F-5.8°C 3.6°F-15.8°C 45% 6.0 mph WNW9.7 kmh WNW -- 30.36 in1028.1 mb 0.00 in0.0 mm 0.00 in0.0 mm 0.00 in0.0 mm
02:25 PM 21.8°F-5.7°C 4.2°F-15.4°C 46% 9.0 mph NW14.5 kmh NW -- 30.36 in1028.1 mb 0.00 in0.0 mm 0.00 in0.0 mm 0.00 in0.0 mm
02:30 PM 22.0°F-5.6°C 4.4°F-15.3°C 46% 4.0 mph W6.4 kmh W -- 30.35 in1027.8 mb 0.00 in0.0 mm 0.00 in0.0 mm 0.00 in0.0 mm
02:35 PM 21.8°F-5.7°C 2.8°F-16.2°C 43% 5.0 mph NW8.0 kmh NW -- 30.35 in1027.8 mb 0.00 in0.0 mm 0.00 in0.0 mm 0.00 in0.0 mm
02:40 PM 22.0°F-5.6°C 3.5°F-15.8°C 44% 8.0 mph WSW12.9 kmh WSW -- 30.35 in1027.8 mb 0.00 in0.0 mm 0.00 in0.0 mm 0.00 in0.0 mm
02:45 PM 21.9°F-5.6°C 2.9°F-16.2°C 43% 7.0 mph W11.3 kmh W -- 30.35 in1027.8 mb 0.00 in0.0 mm 0.00 in0.0 mm 0.00 in0.0 mm
02:50 PM 21.8°F-5.7°C 2.8°F-16.2°C 43% 7.0 mph NW11.3 kmh NW 12.0 mph19.3 kmh 30.35 in1027.8 mb 0.00 in0.0 mm 0.00 in0.0 mm 0.00 in0.0 mm
02:55 PM 22.0°F-5.6°C 3.0°F-16.1°C 43% 5.0 mph WSW8.0 kmh WSW 12.0 mph19.3 kmh 30.35 in1027.8 mb 0.00 in0.0 mm 0.00 in0.0 mm 0.00 in0.0 mm
03:00 PM 22.1°F-5.5°C 3.1°F-16.1°C 43% 4.0 mph WSW6.4 kmh WSW -- 30.35 in1027.8 mb 0.00 in0.0 mm 0.00 in0.0 mm 0.00 in0.0 mm
03:05 PM 22.6°F-5.2°C 4.0°F-15.6°C 44% 3.0 mph W4.8 kmh W -- 30.35 in1027.8 mb 0.00 in0.0 mm 0.00 in0.0 mm 0.00 in0.0 mm
03:10 PM 22.8°F-5.1°C 4.2°F-15.4°C 44% 6.0 mph WSW9.7 kmh WSW -- 30.35 in1027.8 mb 0.00 in0.0 mm 0.00 in0.0 mm 0.00 in0.0 mm
03:15 PM 22.7°F-5.2°C 3.6°F-15.8°C 43% 7.0 mph WSW11.3 kmh WSW -- 30.35 in1027.8 mb 0.00 in0.0 mm 0.00 in0.0 mm 0.00 in0.0 mm
03:20 PM 22.6°F-5.2°C 4.0°F-15.6°C 44% 8.0 mph SW12.9 kmh SW -- 30.35 in1027.8 mb 0.00 in0.0 mm 0.00 in0.0 mm 0.00 in0.0 mm
03:25 PM 23.0°F-5.0°C 4.9°F-15.1°C 45% 4.0 mph WSW6.4 kmh WSW -- 30.35 in1027.8 mb 0.00 in0.0 mm 0.00 in0.0 mm 0.00 in0.0 mm
03:30 PM 23.1°F-4.9°C 4.5°F-15.3°C 44% 9.0 mph W14.5 kmh W -- 30.35 in1027.8 mb 0.00 in0.0 mm 0.00 in0.0 mm 0.00 in0.0 mm
03:35 PM 22.9°F-5.1°C 3.8°F-15.7°C 43% 3.0 mph WSW4.8 kmh WSW -- 30.35 in1027.8 mb 0.00 in0.0 mm 0.00 in0.0 mm 0.00 in0.0 mm
03:40 PM 23.0°F-5.0°C 5.3°F-14.8°C 46% 6.0 mph WSW9.7 kmh WSW 12.0 mph19.3 kmh 30.35 in1027.8 mb 0.00 in0.0 mm 0.00 in0.0 mm 0.00 in0.0 mm
03:45 PM 22.8°F-5.1°C 3.2°F-16.0°C 42% 6.0 mph W9.7 kmh W 12.0 mph19.3 kmh 30.35 in1027.8 mb 0.00 in0.0 mm 0.00 in0.0 mm 0.00 in0.0 mm
03:50 PM 22.9°F-5.1°C 2.8°F-16.2°C 41% 7.0 mph NW11.3 kmh NW -- 30.35 in1027.8 mb 0.00 in0.0 mm 0.00 in0.0 mm 0.00 in0.0 mm
03:55 PM 22.9°F-5.1°C 2.8°F-16.2°C 41% 5.0 mph WSW8.0 kmh WSW -- 30.35 in1027.8 mb 0.00 in0.0 mm 0.00 in0.0 mm 0.00 in0.0 mm
04:00 PM 23.1°F-4.9°C 2.9°F-16.2°C 41% 3.0 mph W4.8 kmh W -- 30.35 in1027.8 mb 0.00 in0.0 mm 0.00 in0.0 mm 0.00 in0.0 mm
04:05 PM 23.4°F-4.8°C 3.2°F-16.0°C 41% 6.0 mph W9.7 kmh W -- 30.35 in1027.8 mb 0.00 in0.0 mm 0.00 in0.0 mm 0.00 in0.0 mm
04:10 PM 23.1°F-4.9°C 2.9°F-16.2°C 41% 11.0 mph WNW17.7 kmh WNW -- 30.35 in1027.8 mb 0.00 in0.0 mm 0.00 in0.0 mm 0.00 in0.0 mm
04:15 PM 23.1°F-4.9°C 2.9°F-16.2°C 41% 5.0 mph WSW8.0 kmh WSW -- 30.35 in1027.8 mb 0.00 in0.0 mm 0.00 in0.0 mm 0.00 in0.0 mm
04:20 PM 23.2°F-4.9°C 3.0°F-16.1°C 41% 5.0 mph W8.0 kmh W -- 30.35 in1027.8 mb 0.00 in0.0 mm 0.00 in0.0 mm 0.00 in0.0 mm
04:25 PM 23.1°F-4.9°C 2.9°F-16.2°C 41% 9.0 mph WNW14.5 kmh WNW -- 30.35 in1027.8 mb 0.00 in0.0 mm 0.00 in0.0 mm 0.00 in0.0 mm
04:30 PM 23.1°F-4.9°C 2.9°F-16.2°C 41% 8.0 mph W12.9 kmh W 12.0 mph19.3 kmh 30.35 in1027.8 mb 0.00 in0.0 mm 0.00 in0.0 mm 0.00 in0.0 mm
04:35 PM 23.2°F-4.9°C 3.0°F-16.1°C 41% 6.0 mph WSW9.7 kmh WSW 12.0 mph19.3 kmh 30.35 in1027.8 mb 0.00 in0.0 mm 0.00 in0.0 mm 0.00 in0.0 mm
04:40 PM 23.3°F-4.8°C 3.6°F-15.8°C 42% 5.0 mph W8.0 kmh W -- 30.35 in1027.8 mb 0.00 in0.0 mm 0.00 in0.0 mm 0.00 in0.0 mm
04:45 PM 23.5°F-4.7°C 4.3°F-15.4°C 43% 3.0 mph W4.8 kmh W -- 30.35 in1027.8 mb 0.00 in0.0 mm 0.00 in0.0 mm 0.00 in0.0 mm
04:50 PM 23.6°F-4.7°C 2.9°F-16.2°C 40% 7.0 mph W11.3 kmh W -- 30.35 in1027.8 mb 0.00 in0.0 mm 0.00 in0.0 mm 0.00 in0.0 mm
04:55 PM 23.7°F-4.6°C 3.5°F-15.8°C 41% 5.0 mph WSW8.0 kmh WSW -- 30.35 in1027.8 mb 0.00 in0.0 mm 0.00 in0.0 mm 0.00 in0.0 mm
05:00 PM 23.7°F-4.6°C 3.0°F-16.1°C 40% 6.0 mph WNW9.7 kmh WNW -- 30.35 in1027.8 mb 0.00 in0.0 mm 0.00 in0.0 mm 0.00 in0.0 mm
05:05 PM 23.7°F-4.6°C 3.5°F-15.8°C 41% 5.0 mph W8.0 kmh W -- 30.35 in1027.8 mb 0.00 in0.0 mm 0.00 in0.0 mm 0.00 in0.0 mm
05:10 PM 23.8°F-4.6°C 3.6°F-15.8°C 41% 8.0 mph WNW12.9 kmh WNW -- 30.36 in1028.1 mb 0.00 in0.0 mm 0.00 in0.0 mm 0.00 in0.0 mm
05:15 PM 23.8°F-4.6°C 3.6°F-15.8°C 41% 3.0 mph WNW4.8 kmh WNW -- 30.36 in1028.1 mb 0.00 in0.0 mm 0.00 in0.0 mm 0.00 in0.0 mm
05:20 PM 23.9°F-4.5°C 4.2°F-15.4°C 42% 5.0 mph W8.0 kmh W 9.0 mph14.5 kmh 30.36 in1028.1 mb 0.00 in0.0 mm 0.00 in0.0 mm 0.00 in0.0 mm
05:25 PM 23.9°F-4.5°C 4.2°F-15.4°C 42% 4.0 mph W6.4 kmh W 9.0 mph14.5 kmh 30.36 in1028.1 mb 0.00 in0.0 mm 0.00 in0.0 mm 0.00 in0.0 mm
05:30 PM 23.9°F-4.5°C 4.2°F-15.4°C 42% 9.0 mph W14.5 kmh W -- 30.36 in1028.1 mb 0.00 in0.0 mm 0.00 in0.0 mm 0.00 in0.0 mm
05:35 PM 23.9°F-4.5°C 4.2°F-15.4°C 42% 5.0 mph WSW8.0 kmh WSW -- 30.36 in1028.1 mb 0.00 in0.0 mm 0.00 in0.0 mm 0.00 in0.0 mm
05:40 PM 23.8°F-4.6°C 4.1°F-15.5°C 42% 4.0 mph W6.4 kmh W -- 30.36 in1028.1 mb 0.00 in0.0 mm 0.00 in0.0 mm 0.00 in0.0 mm
05:45 PM 23.7°F-4.6°C 4.0°F-15.6°C 42% 4.0 mph W6.4 kmh W -- 30.36 in1028.1 mb 0.00 in0.0 mm 0.00 in0.0 mm 0.00 in0.0 mm
05:50 PM 23.6°F-4.7°C 4.4°F-15.3°C 43% 2.0 mph WSW3.2 kmh WSW -- 30.36 in1028.1 mb 0.00 in0.0 mm 0.00 in0.0 mm 0.00 in0.0 mm
05:55 PM 23.6°F-4.7°C 4.9°F-15.1°C 44% 4.0 mph W6.4 kmh W -- 30.36 in1028.1 mb 0.00 in0.0 mm 0.00 in0.0 mm 0.00 in0.0 mm
06:00 PM 23.6°F-4.7°C 5.4°F-14.8°C 45% 2.0 mph WSW3.2 kmh WSW -- 30.35 in1027.8 mb 0.00 in0.0 mm 0.00 in0.0 mm 0.00 in0.0 mm
06:05 PM 23.6°F-4.7°C 5.9°F-14.5°C 46% Calm Calm -- 30.34 in1027.4 mb 0.00 in0.0 mm 0.00 in0.0 mm 0.00 in0.0 mm
06:10 PM 23.5°F-4.7°C 5.8°F-14.6°C 46% Calm Calm 6.0 mph9.7 kmh 30.34 in1027.4 mb 0.00 in0.0 mm 0.00 in0.0 mm 0.00 in0.0 mm
06:15 PM 23.0°F-5.0°C 4.9°F-15.1°C 45% 3.0 mph WSW4.8 kmh WSW 6.0 mph9.7 kmh 30.34 in1027.4 mb 0.00 in0.0 mm 0.00 in0.0 mm 0.00 in0.0 mm
06:20 PM 22.6°F-5.2°C 5.0°F-15.0°C 46% 2.0 mph WSW3.2 kmh WSW -- 30.34 in1027.4 mb 0.00 in0.0 mm 0.00 in0.0 mm 0.00 in0.0 mm
06:25 PM 22.3°F-5.4°C 4.7°F-15.2°C 46% 3.0 mph WSW4.8 kmh WSW -- 30.35 in1027.8 mb 0.00 in0.0 mm 0.00 in0.0 mm 0.00 in0.0 mm
06:30 PM 22.0°F-5.6°C 4.9°F-15.1°C 47% Calm Calm -- 30.34 in1027.4 mb 0.00 in0.0 mm 0.00 in0.0 mm 0.00 in0.0 mm
06:35 PM 21.7°F-5.7°C 5.1°F-14.9°C 48% Calm Calm -- 30.34 in1027.4 mb 0.00 in0.0 mm 0.00 in0.0 mm 0.00 in0.0 mm
06:40 PM 21.6°F-5.8°C 5.0°F-15.0°C 48% 2.0 mph SW3.2 kmh SW -- 30.34 in1027.4 mb 0.00 in0.0 mm 0.00 in0.0 mm 0.00 in0.0 mm
06:45 PM 21.3°F-5.9°C 4.7°F-15.2°C 48% 2.0 mph WSW3.2 kmh WSW -- 30.33 in1027.1 mb 0.00 in0.0 mm 0.00 in0.0 mm 0.00 in0.0 mm
06:50 PM 20.9°F-6.2°C 4.8°F-15.1°C 49% 2.0 mph WSW3.2 kmh WSW -- 30.33 in1027.1 mb 0.00 in0.0 mm 0.00 in0.0 mm 0.00 in0.0 mm
06:55 PM 20.6°F-6.3°C 4.9°F-15.1°C 50% 1.0 mph WSW1.6 kmh WSW -- 30.33 in1027.1 mb 0.00 in0.0 mm 0.00 in0.0 mm 0.00 in0.0 mm
07:00 PM 20.4°F-6.4°C 4.8°F-15.1°C 50% Calm Calm 3.0 mph4.8 kmh 30.33 in1027.1 mb 0.00 in0.0 mm 0.00 in0.0 mm 0.00 in0.0 mm
07:05 PM 20.3°F-6.5°C 4.2°F-15.4°C 49% Calm Calm 3.0 mph4.8 kmh 30.33 in1027.1 mb 0.00 in0.0 mm 0.00 in0.0 mm 0.00 in0.0 mm
07:10 PM 20.2°F-6.6°C 5.0°F-15.0°C 51% Calm Calm -- 30.33 in1027.1 mb 0.00 in0.0 mm 0.00 in0.0 mm 0.00 in0.0 mm
07:15 PM 19.9°F-6.7°C 4.3°F-15.4°C 50% Calm Calm -- 30.33 in1027.1 mb 0.00 in0.0 mm 0.00 in0.0 mm 0.00 in0.0 mm
07:20 PM 19.7°F-6.8°C 4.5°F-15.3°C 51% Calm Calm -- 30.33 in1027.1 mb 0.00 in0.0 mm 0.00 in0.0 mm 0.00 in0.0 mm
07:25 PM 19.5°F-6.9°C 5.2°F-14.9°C 53% Calm Calm -- 30.32 in1026.8 mb 0.00 in0.0 mm 0.00 in0.0 mm 0.00 in0.0 mm
07:30 PM 19.2°F-7.1°C 4.9°F-15.1°C 53% Calm Calm -- 30.33 in1027.1 mb 0.00 in0.0 mm 0.00 in0.0 mm 0.00 in0.0 mm
07:35 PM 19.0°F-7.2°C 5.1°F-14.9°C 54% Calm Calm -- 30.33 in1027.1 mb 0.00 in0.0 mm 0.00 in0.0 mm 0.00 in0.0 mm
07:40 PM 18.8°F-7.3°C 4.5°F-15.3°C 53% Calm Calm -- 30.33 in1027.1 mb 0.00 in0.0 mm 0.00 in0.0 mm 0.00 in0.0 mm
07:45 PM 18.7°F-7.4°C 4.8°F-15.1°C 54% Calm Calm -- 30.33 in1027.1 mb 0.00 in0.0 mm 0.00 in0.0 mm 0.00 in0.0 mm
07:50 PM 18.5°F-7.5°C 5.1°F-14.9°C 55% Calm Calm -- 30.33 in1027.1 mb 0.00 in0.0 mm 0.00 in0.0 mm 0.00 in0.0 mm
07:55 PM 18.3°F-7.6°C 4.9°F-15.1°C 55% Calm Calm -- 30.32 in1026.8 mb 0.00 in0.0 mm 0.00 in0.0 mm 0.00 in0.0 mm
08:00 PM 18.2°F-7.7°C 5.2°F-14.9°C 56% Calm Calm -- 30.32 in1026.8 mb 0.00 in0.0 mm 0.00 in0.0 mm 0.00 in0.0 mm
08:05 PM 18.0°F-7.8°C 5.7°F-14.6°C 58% Calm Calm -- 30.33 in1027.1 mb 0.00 in0.0 mm 0.00 in0.0 mm 0.00 in0.0 mm
08:10 PM 17.9°F-7.8°C 5.7°F-14.6°C 58% Calm Calm -- 30.33 in1027.1 mb 0.00 in0.0 mm 0.00 in0.0 mm 0.00 in0.0 mm
08:15 PM 17.8°F-7.9°C 5.6°F-14.7°C 58% Calm Calm -- 30.32 in1026.8 mb 0.00 in0.0 mm 0.00 in0.0 mm 0.00 in0.0 mm
08:20 PM 17.8°F-7.9°C 5.6°F-14.7°C 58% Calm Calm -- 30.32 in1026.8 mb 0.00 in0.0 mm 0.00 in0.0 mm 0.00 in0.0 mm
08:25 PM 17.6°F-8.0°C 5.4°F-14.8°C 58% Calm Calm -- 30.33 in1027.1 mb 0.00 in0.0 mm 0.00 in0.0 mm 0.00 in0.0 mm
08:30 PM 17.6°F-8.0°C 5.4°F-14.8°C 58% Calm Calm -- 30.33 in1027.1 mb 0.00 in0.0 mm 0.00 in0.0 mm 0.00 in0.0 mm
08:35 PM 17.5°F-8.1°C 5.3°F-14.8°C 58% Calm Calm -- 30.33 in1027.1 mb 0.00 in0.0 mm 0.00 in0.0 mm 0.00 in0.0 mm
08:40 PM 17.5°F-8.1°C 5.3°F-14.8°C 58% Calm Calm -- 30.33 in1027.1 mb 0.00 in0.0 mm 0.00 in0.0 mm 0.00 in0.0 mm
08:45 PM 17.5°F-8.1°C 5.3°F-14.8°C 58% Calm Calm -- 30.32 in1026.8 mb 0.00 in0.0 mm 0.00 in0.0 mm 0.00 in0.0 mm
08:50 PM 17.7°F-7.9°C 5.1°F-14.9°C 57% Calm Calm -- 30.32 in1026.8 mb 0.00 in0.0 mm 0.00 in0.0 mm 0.00 in0.0 mm
08:55 PM 17.9°F-7.8°C 4.9°F-15.1°C 56% Calm Calm -- 30.32 in1026.8 mb 0.00 in0.0 mm 0.00 in0.0 mm 0.00 in0.0 mm
09:00 PM 18.0°F-7.8°C 5.0°F-15.0°C 56% Calm Calm -- 30.32 in1026.8 mb 0.00 in0.0 mm 0.00 in0.0 mm 0.00 in0.0 mm
09:05 PM 18.1°F-7.7°C 5.1°F-14.9°C 56% Calm Calm -- 30.32 in1026.8 mb 0.00 in0.0 mm 0.00 in0.0 mm 0.00 in0.0 mm
09:10 PM 18.2°F-7.7°C 5.2°F-14.9°C 56% 3.0 mph WSW4.8 kmh WSW -- 30.33 in1027.1 mb 0.00 in0.0 mm 0.00 in0.0 mm 0.00 in0.0 mm
09:15 PM 18.5°F-7.5°C 5.5°F-14.7°C 56% Calm Calm -- 30.33 in1027.1 mb 0.00 in0.0 mm 0.00 in0.0 mm 0.00 in0.0 mm
09:20 PM 18.1°F-7.7°C 5.5°F-14.7°C 57% Calm Calm -- 30.33 in1027.1 mb 0.00 in0.0 mm 0.00 in0.0 mm 0.00 in0.0 mm
09:25 PM 17.7°F-7.9°C 5.1°F-14.9°C 57% Calm Calm -- 30.32 in1026.8 mb 0.00 in0.0 mm 0.00 in0.0 mm 0.00 in0.0 mm
09:30 PM 17.4°F-8.1°C 5.2°F-14.9°C 58% Calm Calm 2.0 mph3.2 kmh 30.32 in1026.8 mb 0.00 in0.0 mm 0.00 in0.0 mm 0.00 in0.0 mm
09:35 PM 17.2°F-8.2°C 5.4°F-14.8°C 59% Calm Calm 2.0 mph3.2 kmh 30.32 in1026.8 mb 0.00 in0.0 mm 0.00 in0.0 mm 0.00 in0.0 mm
09:40 PM 17.2°F-8.2°C 5.4°F-14.8°C 59% 3.0 mph WSW4.8 kmh WSW -- 30.32 in1026.8 mb 0.00 in0.0 mm 0.00 in0.0 mm 0.00 in0.0 mm
09:45 PM 17.5°F-8.1°C 5.6°F-14.7°C 59% 3.0 mph WSW4.8 kmh WSW -- 30.32 in1026.8 mb 0.00 in0.0 mm 0.00 in0.0 mm 0.00 in0.0 mm
09:50 PM 17.5°F-8.1°C 5.6°F-14.7°C 59% 3.0 mph WSW4.8 kmh WSW -- 30.32 in1026.8 mb 0.00 in0.0 mm 0.00 in0.0 mm 0.00 in0.0 mm
09:55 PM 17.6°F-8.0°C 5.7°F-14.6°C 59% Calm Calm -- 30.32 in1026.8 mb 0.00 in0.0 mm 0.00 in0.0 mm 0.00 in0.0 mm
10:00 PM 17.3°F-8.2°C 5.8°F-14.6°C 60% Calm Calm -- 30.32 in1026.8 mb 0.00 in0.0 mm 0.00 in0.0 mm 0.00 in0.0 mm
10:05 PM 17.0°F-8.3°C 5.5°F-14.7°C 60% Calm Calm -- 30.33 in1027.1 mb 0.00 in0.0 mm 0.00 in0.0 mm 0.00 in0.0 mm
10:10 PM 16.8°F-8.4°C 5.4°F-14.8°C 60% 1.0 mph WSW1.6 kmh WSW -- 30.32 in1026.8 mb 0.00 in0.0 mm 0.00 in0.0 mm 0.00 in0.0 mm
10:15 PM 16.8°F-8.4°C 5.7°F-14.6°C 61% Calm Calm -- 30.32 in1026.8 mb 0.00 in0.0 mm 0.00 in0.0 mm 0.00 in0.0 mm
10:20 PM 16.6°F-8.6°C 5.5°F-14.7°C 61% Calm Calm 3.0 mph4.8 kmh 30.32 in1026.8 mb 0.00 in0.0 mm 0.00 in0.0 mm 0.00 in0.0 mm
10:25 PM 16.5°F-8.6°C 5.4°F-14.8°C 61% Calm Calm 3.0 mph4.8 kmh 30.32 in1026.8 mb 0.00 in0.0 mm 0.00 in0.0 mm 0.00 in0.0 mm
10:30 PM 16.3°F-8.7°C 5.6°F-14.7°C 62% Calm Calm -- 30.32 in1026.8 mb 0.00 in0.0 mm 0.00 in0.0 mm 0.00 in0.0 mm
10:35 PM 16.2°F-8.8°C 5.5°F-14.7°C 62% 1.0 mph WSW1.6 kmh WSW -- 30.32 in1026.8 mb 0.00 in0.0 mm 0.00 in0.0 mm 0.00 in0.0 mm
10:40 PM 16.1°F-8.8°C 5.4°F-14.8°C 62% Calm Calm -- 30.32 in1026.8 mb 0.00 in0.0 mm 0.00 in0.0 mm 0.00 in0.0 mm
10:45 PM 15.9°F-8.9°C 5.6°F-14.7°C 63% Calm Calm -- 30.32 in1026.8 mb 0.00 in0.0 mm 0.00 in0.0 mm 0.00 in0.0 mm
10:50 PM 15.5°F-9.2°C 5.5°F-14.7°C 64% Calm Calm -- 30.32 in1026.8 mb 0.00 in0.0 mm 0.00 in0.0 mm 0.00 in0.0 mm
10:55 PM 15.1°F-9.4°C 5.5°F-14.7°C 65% Calm Calm -- 30.33 in1027.1 mb 0.00 in0.0 mm 0.00 in0.0 mm 0.00 in0.0 mm
11:00 PM 14.9°F-9.5°C 5.3°F-14.8°C 65% Calm Calm -- 30.33 in1027.1 mb 0.00 in0.0 mm 0.00 in0.0 mm 0.00 in0.0 mm
11:05 PM 14.8°F-9.6°C 5.5°F-14.7°C 66% Calm Calm -- 30.32 in1026.8 mb 0.00 in0.0 mm 0.00 in0.0 mm 0.00 in0.0 mm
11:10 PM 14.4°F-9.8°C 5.5°F-14.7°C 67% Calm Calm -- 30.32 in1026.8 mb 0.00 in0.0 mm 0.00 in0.0 mm 0.00 in0.0 mm
11:15 PM 14.1°F-9.9°C 5.2°F-14.9°C 67% Calm Calm -- 30.32 in1026.8 mb 0.00 in0.0 mm 0.00 in0.0 mm 0.00 in0.0 mm
11:20 PM 13.9°F-10.1°C 5.3°F-14.8°C 68% Calm Calm -- 30.31 in1026.4 mb 0.00 in0.0 mm 0.00 in0.0 mm 0.00 in0.0 mm
11:25 PM 13.9°F-10.1°C 5.6°F-14.7°C 69% Calm Calm -- 30.31 in1026.4 mb 0.00 in0.0 mm 0.00 in0.0 mm 0.00 in0.0 mm
11:30 PM 13.9°F-10.1°C 5.6°F-14.7°C 69% Calm Calm -- 30.31 in1026.4 mb 0.00 in0.0 mm 0.00 in0.0 mm 0.00 in0.0 mm
11:35 PM 14.0°F-10.0°C 5.7°F-14.6°C 69% Calm Calm -- 30.30 in1026.1 mb 0.00 in0.0 mm 0.00 in0.0 mm 0.00 in0.0 mm
11:40 PM 14.1°F-9.9°C 5.5°F-14.7°C 68% Calm Calm -- 30.30 in1026.1 mb 0.00 in0.0 mm 0.00 in0.0 mm 0.00 in0.0 mm
11:45 PM 14.3°F-9.8°C 5.7°F-14.6°C 68% Calm Calm -- 30.30 in1026.1 mb 0.00 in0.0 mm 0.00 in0.0 mm 0.00 in0.0 mm
11:50 PM 14.3°F-9.8°C 5.7°F-14.6°C 68% Calm Calm -- 30.29 in1025.7 mb 0.00 in0.0 mm 0.00 in0.0 mm 0.00 in0.0 mm
11:55 PM 14.1°F-9.9°C 5.5°F-14.7°C 68% Calm Calm -- 30.29 in1025.7 mb 0.00 in0.0 mm 0.00 in0.0 mm 0.00 in0.0 mm